createdAt,value
2023-11-10T00:00:51.350Z,17.58
2023-11-10T00:01:51.352Z,17.49
2023-11-10T00:02:51.365Z,17.49
2023-11-10T00:03:51.597Z,17.49
2023-11-10T00:04:51.582Z,17.50
2023-11-10T00:05:51.488Z,17.49
2023-11-10T00:06:51.329Z,17.58
2023-11-10T00:07:51.338Z,17.58
2023-11-10T00:08:51.332Z,17.49
2023-11-10T00:09:51.348Z,17.58
2023-11-10T00:10:51.339Z,17.58
2023-11-10T00:11:51.345Z,17.49
2023-11-10T00:12:51.345Z,17.58
2023-11-10T00:13:53.737Z,17.58
2023-11-10T00:14:51.347Z,17.58
2023-11-10T00:15:51.424Z,17.49
2023-11-10T00:16:51.351Z,17.58
2023-11-10T00:17:51.411Z,17.58
2023-11-10T00:18:51.355Z,17.58
2023-11-10T00:19:51.366Z,17.49
2023-11-10T00:20:51.361Z,17.60
2023-11-10T00:21:51.378Z,17.49
2023-11-10T00:22:51.371Z,17.60
2023-11-10T00:23:51.375Z,17.58
2023-11-10T00:24:51.374Z,17.58
2023-11-10T00:25:51.378Z,17.58
2023-11-10T00:26:51.382Z,17.58
2023-11-10T00:27:51.379Z,17.49
2023-11-10T00:28:51.381Z,17.58
2023-11-10T00:29:51.387Z,17.49
2023-11-10T00:30:51.410Z,17.49
2023-11-10T00:31:51.397Z,17.40
2023-11-10T00:32:51.446Z,17.49
2023-11-10T00:33:51.578Z,17.40
2023-11-10T00:34:51.457Z,17.40
2023-11-10T00:35:51.406Z,17.40
2023-11-10T00:36:51.398Z,17.30
2023-11-10T00:37:51.447Z,17.40
2023-11-10T00:38:51.413Z,17.49
2023-11-10T00:39:51.410Z,17.30
2023-11-10T00:40:51.403Z,17.58
2023-11-10T00:41:51.412Z,17.58
2023-11-10T00:42:51.415Z,17.58
2023-11-10T00:43:51.417Z,17.58
2023-11-10T00:44:51.414Z,17.40
2023-11-10T00:45:51.426Z,17.49
2023-11-10T00:46:51.429Z,17.58
2023-11-10T00:47:51.437Z,17.58
2023-11-10T00:48:51.508Z,17.58
2023-11-10T00:49:51.493Z,17.58
2023-11-10T00:50:51.437Z,17.49
2023-11-10T00:51:51.433Z,17.58
2023-11-10T00:52:51.428Z,17.58
2023-11-10T00:53:51.440Z,17.58
2023-11-10T00:54:51.438Z,17.58
2023-11-10T00:55:51.449Z,17.58
2023-11-10T00:56:51.447Z,17.58
2023-11-10T00:57:51.449Z,17.58
2023-11-10T00:58:51.451Z,17.60
2023-11-10T00:59:51.455Z,17.58
2023-11-10T01:00:53.030Z,17.40
2023-11-10T01:01:51.466Z,17.58
2023-11-10T01:02:51.590Z,17.49
2023-11-10T01:03:51.552Z,17.30
2023-11-10T01:04:51.467Z,17.49
2023-11-10T01:05:51.500Z,17.40
2023-11-10T01:06:51.578Z,17.40
2023-11-10T01:07:51.468Z,17.40
2023-11-10T01:08:51.469Z,17.40
2023-11-10T01:09:51.495Z,17.40
2023-11-10T01:10:51.477Z,17.40
2023-11-10T01:11:51.486Z,17.60
2023-11-10T01:12:51.475Z,17.40
2023-11-10T01:13:51.485Z,17.30
2023-11-10T01:14:51.488Z,17.58
2023-11-10T01:15:51.487Z,17.40
2023-11-10T01:16:51.539Z,17.49
2023-11-10T01:17:51.536Z,17.58
2023-11-10T01:18:51.604Z,17.49
2023-11-10T01:19:51.515Z,17.40
2023-11-10T01:20:51.491Z,17.49
2023-11-10T01:21:51.585Z,17.49
2023-11-10T01:22:51.498Z,17.58
2023-11-10T01:23:51.507Z,17.49
2023-11-10T01:24:51.545Z,17.50
2023-11-10T01:25:51.509Z,17.58
2023-11-10T01:26:51.506Z,17.58
2023-11-10T01:27:51.518Z,17.49
2023-11-10T01:28:51.507Z,17.49
2023-11-10T01:29:51.520Z,17.58
2023-11-10T01:30:51.536Z,17.50
2023-11-10T01:31:51.522Z,17.58
2023-11-10T01:32:51.572Z,17.58
2023-11-10T01:33:51.632Z,17.49
2023-11-10T01:34:51.522Z,17.58
2023-11-10T01:35:51.536Z,17.58
2023-11-10T01:36:51.527Z,17.50
2023-11-10T01:37:51.563Z,17.40
2023-11-10T01:38:51.541Z,17.40
2023-11-10T01:39:51.538Z,17.60
2023-11-10T01:40:51.538Z,17.40
2023-11-10T01:41:51.543Z,17.40
2023-11-10T01:42:51.539Z,17.40
2023-11-10T01:43:51.549Z,17.40
2023-11-10T01:44:51.544Z,17.49
2023-11-10T01:45:51.605Z,17.40
2023-11-10T01:46:51.645Z,17.58
2023-11-10T01:47:51.562Z,17.30
2023-11-10T01:48:51.585Z,17.49
2023-11-10T01:49:51.560Z,17.58
2023-11-10T01:50:51.561Z,17.40
2023-11-10T01:51:51.572Z,17.58
2023-11-10T01:52:51.561Z,17.30
2023-11-10T01:53:51.601Z,17.49
2023-11-10T01:54:51.568Z,17.49
2023-11-10T01:55:51.574Z,17.50
2023-11-10T01:56:51.568Z,17.49
2023-11-10T01:57:51.579Z,17.30
2023-11-10T01:58:51.574Z,17.49
2023-11-10T01:59:51.576Z,17.40
2023-11-10T02:00:51.587Z,17.49
2023-11-10T02:01:51.646Z,17.49
2023-11-10T02:02:51.928Z,17.58
2023-11-10T02:03:51.756Z,17.58
2023-11-10T02:04:51.597Z,17.49
2023-11-10T02:05:51.596Z,17.58
2023-11-10T02:06:51.632Z,17.58
2023-11-10T02:07:51.593Z,17.60
2023-11-10T02:08:51.604Z,17.60
2023-11-10T02:09:51.678Z,17.58
2023-11-10T02:10:51.620Z,17.58
2023-11-10T02:11:51.607Z,17.49
2023-11-10T02:12:51.608Z,17.49
2023-11-10T02:13:51.603Z,17.30
2023-11-10T02:14:51.636Z,17.30
2023-11-10T02:15:51.729Z,17.40
2023-11-10T02:16:51.625Z,17.30
2023-11-10T02:17:51.637Z,17.49
2023-11-10T02:18:51.669Z,17.49
2023-11-10T02:19:51.617Z,17.49
2023-11-10T02:20:51.630Z,17.58
2023-11-10T02:21:51.631Z,17.40
2023-11-10T02:22:51.632Z,17.49
2023-11-10T02:23:51.627Z,17.40
2023-11-10T02:24:51.694Z,17.58
2023-11-10T02:25:51.656Z,17.40
2023-11-10T02:26:51.638Z,17.68
2023-11-10T02:27:51.644Z,17.40
2023-11-10T02:28:51.642Z,17.49
2023-11-10T02:29:51.637Z,17.50
2023-11-10T02:30:51.692Z,17.49
2023-11-10T02:31:51.670Z,17.49
2023-11-10T02:32:51.686Z,17.58
2023-11-10T02:33:51.673Z,17.58
2023-11-10T02:34:51.660Z,17.40
2023-11-10T02:35:51.649Z,17.58
2023-11-10T02:36:51.681Z,17.58
2023-11-10T02:37:51.654Z,17.58
2023-11-10T02:38:51.669Z,17.49
2023-11-10T02:39:51.709Z,17.49
2023-11-10T02:40:51.668Z,17.49
2023-11-10T02:41:51.690Z,17.58
2023-11-10T02:42:51.672Z,17.58
2023-11-10T02:43:51.695Z,17.58
2023-11-10T02:44:51.684Z,17.49
2023-11-10T02:45:51.720Z,17.58
2023-11-10T02:46:51.681Z,17.58
2023-11-10T02:47:51.714Z,17.58
2023-11-10T02:48:51.744Z,17.49
2023-11-10T02:49:51.682Z,17.49
2023-11-10T02:50:51.728Z,17.49
2023-11-10T02:51:51.686Z,17.49
2023-11-10T02:52:51.691Z,17.49
2023-11-10T02:53:51.692Z,17.49
2023-11-10T02:54:51.708Z,17.49
2023-11-10T02:55:51.692Z,17.49
2023-11-10T02:56:51.700Z,17.49
2023-11-10T02:57:51.746Z,17.49
2023-11-10T02:58:51.709Z,17.49
2023-11-10T02:59:51.704Z,17.49
2023-11-10T03:00:51.731Z,17.58
2023-11-10T03:01:51.770Z,17.58
2023-11-10T03:02:51.743Z,17.58
2023-11-10T03:03:51.752Z,17.50
2023-11-10T03:04:51.718Z,17.58
2023-11-10T03:05:51.722Z,17.58
2023-11-10T03:06:51.732Z,17.49
2023-11-10T03:07:51.734Z,17.49
2023-11-10T03:08:51.726Z,17.60
2023-11-10T03:09:51.773Z,17.49
2023-11-10T03:10:51.738Z,17.49
2023-11-10T03:11:51.728Z,17.68
2023-11-10T03:12:51.775Z,17.68
2023-11-10T03:13:51.755Z,17.68
2023-11-10T03:14:51.738Z,17.78
2023-11-10T03:15:51.745Z,17.68
2023-11-10T03:16:51.754Z,17.78
2023-11-10T03:17:51.829Z,17.68
2023-11-10T03:18:51.852Z,17.78
2023-11-10T03:19:51.756Z,17.88
2023-11-10T03:20:51.754Z,17.58
2023-11-10T03:21:51.776Z,17.88
2023-11-10T03:22:51.779Z,17.68
2023-11-10T03:23:51.754Z,17.78
2023-11-10T03:24:51.797Z,17.88
2023-11-10T03:25:51.759Z,17.68
2023-11-10T03:26:51.772Z,17.78
2023-11-10T03:27:51.784Z,17.78
2023-11-10T03:28:51.781Z,17.78
2023-11-10T03:29:51.792Z,17.78
2023-11-10T03:30:51.801Z,17.88
2023-11-10T03:31:51.826Z,17.78
2023-11-10T03:32:51.822Z,17.78
2023-11-10T03:33:51.830Z,17.88
2023-11-10T03:34:51.785Z,18.07
2023-11-10T03:35:51.781Z,18.07
2023-11-10T03:36:51.844Z,18.07
2023-11-10T03:37:51.785Z,18.07
2023-11-10T03:38:51.810Z,17.97
2023-11-10T03:39:51.870Z,18.07
2023-11-10T03:40:51.799Z,17.97
2023-11-10T03:41:51.791Z,17.97
2023-11-10T03:42:51.860Z,17.97
2023-11-10T03:43:51.799Z,18.07
2023-11-10T03:44:51.852Z,17.97
2023-11-10T03:45:51.931Z,18.07
2023-11-10T03:46:51.811Z,18.27
2023-11-10T03:47:51.815Z,18.17
2023-11-10T03:48:51.903Z,18.37
2023-11-10T03:49:51.812Z,18.37
2023-11-10T03:50:51.821Z,18.07
2023-11-10T03:51:51.870Z,18.07
2023-11-10T03:52:51.824Z,18.07
2023-11-10T03:53:51.827Z,18.07
2023-11-10T03:54:51.891Z,18.07
2023-11-10T03:55:51.821Z,18.17
2023-11-10T03:56:51.830Z,18.07
2023-11-10T03:57:51.876Z,18.17
2023-11-10T03:58:51.836Z,18.27
2023-11-10T03:59:51.829Z,18.17
2023-11-10T04:00:51.848Z,18.27
2023-11-10T04:01:51.904Z,18.17
2023-11-10T04:02:51.877Z,18.27
2023-11-10T04:03:51.898Z,18.17
2023-11-10T04:04:51.846Z,18.17
2023-11-10T04:05:51.842Z,18.37
2023-11-10T04:06:51.913Z,18.37
2023-11-10T04:07:51.923Z,18.17
2023-11-10T04:08:51.856Z,18.37
2023-11-10T04:09:51.895Z,18.17
2023-11-10T04:10:51.865Z,18.07
2023-11-10T04:11:51.855Z,18.37
2023-11-10T04:12:51.891Z,18.07
2023-11-10T04:13:51.858Z,18.17
2023-11-10T04:14:51.867Z,18.17
2023-11-10T04:15:51.952Z,18.17
2023-11-10T04:16:51.912Z,18.37
2023-11-10T04:17:51.900Z,18.07
2023-11-10T04:18:51.899Z,18.17
2023-11-10T04:19:51.868Z,18.17
2023-11-10T04:20:51.881Z,18.17
2023-11-10T04:21:51.890Z,18.17
2023-11-10T04:22:51.883Z,18.07
2023-11-10T04:23:51.883Z,18.46
2023-11-10T04:24:51.915Z,18.17
2023-11-10T04:25:51.882Z,18.17
2023-11-10T04:26:51.889Z,18.17
2023-11-10T04:27:51.979Z,18.17
2023-11-10T04:28:51.902Z,18.27
2023-11-10T04:29:51.911Z,18.27
2023-11-10T04:30:52.064Z,18.27
2023-11-10T04:31:51.929Z,18.17
2023-11-10T04:32:51.942Z,18.27
2023-11-10T04:33:51.996Z,18.27
2023-11-10T04:34:52.774Z,18.17
2023-11-10T04:35:51.913Z,18.17
2023-11-10T04:36:51.948Z,18.17
2023-11-10T04:37:51.912Z,18.27
2023-11-10T04:38:51.918Z,18.17
2023-11-10T04:39:51.947Z,18.46
2023-11-10T04:40:51.918Z,18.17
2023-11-10T04:41:51.914Z,18.17
2023-11-10T04:42:51.983Z,18.17
2023-11-10T04:43:51.920Z,18.17
2023-11-10T04:44:51.941Z,18.37
2023-11-10T04:45:51.953Z,18.46
2023-11-10T04:46:51.936Z,18.17
2023-11-10T04:47:51.993Z,18.37
2023-11-10T04:48:52.009Z,18.37
2023-11-10T04:49:52.008Z,18.37
2023-11-10T04:50:51.943Z,18.37
2023-11-10T04:51:51.974Z,18.27
2023-11-10T04:52:51.950Z,18.37
2023-11-10T04:53:51.947Z,18.56
2023-11-10T04:54:51.973Z,18.17
2023-11-10T04:55:51.943Z,18.37
2023-11-10T04:56:51.952Z,18.17
2023-11-10T04:57:52.030Z,18.27
2023-11-10T04:58:51.960Z,18.37
2023-11-10T04:59:51.952Z,18.37
2023-11-10T05:00:51.985Z,18.37
2023-11-10T05:01:51.976Z,18.17
2023-11-10T05:02:51.977Z,18.17
2023-11-10T05:03:52.009Z,18.46
2023-11-10T05:04:51.973Z,18.17
2023-11-10T05:05:51.993Z,18.17
2023-11-10T05:06:52.051Z,18.17
2023-11-10T05:07:51.968Z,18.17
2023-11-10T05:08:51.982Z,18.17
2023-11-10T05:09:52.005Z,18.27
2023-11-10T05:10:51.983Z,18.46
2023-11-10T05:11:51.976Z,18.27
2023-11-10T05:12:51.997Z,18.46
2023-11-10T05:13:51.989Z,18.46
2023-11-10T05:14:51.990Z,18.46
2023-11-10T05:15:52.053Z,18.46
2023-11-10T05:16:52.016Z,18.46
2023-11-10T05:17:52.054Z,18.46
2023-11-10T05:19:51.991Z,18.46
2023-11-10T05:20:52.003Z,18.46
2023-11-10T05:21:52.089Z,18.37
2023-11-10T05:22:52.007Z,18.27
2023-11-10T05:23:52.000Z,18.27
2023-11-10T05:24:52.081Z,18.27
2023-11-10T05:25:52.019Z,18.27
2023-11-10T05:26:52.012Z,18.37
2023-11-10T05:27:52.057Z,18.27
2023-11-10T05:28:52.026Z,18.27
2023-11-10T05:29:52.016Z,18.27
2023-11-10T05:30:52.054Z,18.27
2023-11-10T05:31:52.036Z,18.27
2023-11-10T05:32:52.058Z,18.27
2023-11-10T05:33:52.046Z,18.56
2023-11-10T05:34:52.138Z,18.46
2023-11-10T05:35:52.029Z,18.46
2023-11-10T05:36:52.095Z,18.46
2023-11-10T05:37:52.058Z,18.37
2023-11-10T05:38:52.108Z,18.27
2023-11-10T05:39:52.164Z,18.07
2023-11-10T05:40:52.042Z,18.37
2023-11-10T05:41:52.042Z,18.17
2023-11-10T05:42:52.069Z,18.27
2023-11-10T05:43:52.052Z,18.37
2023-11-10T05:44:52.052Z,18.37
2023-11-10T05:45:52.111Z,18.27
2023-11-10T05:46:52.054Z,18.46
2023-11-10T05:47:52.096Z,18.37
2023-11-10T05:48:52.080Z,18.37
2023-11-10T05:49:52.053Z,18.27
2023-11-10T05:50:52.213Z,18.37
2023-11-10T05:51:52.102Z,18.37
2023-11-10T05:52:52.084Z,18.56
2023-11-10T05:53:52.138Z,18.27
2023-11-10T05:54:52.141Z,18.37
2023-11-10T05:55:52.064Z,18.37
2023-11-10T05:56:52.084Z,18.27
2023-11-10T05:57:52.117Z,18.37
2023-11-10T05:58:52.079Z,18.46
2023-11-10T05:59:52.076Z,18.56
2023-11-10T06:00:52.131Z,18.56
2023-11-10T06:01:52.117Z,18.56
2023-11-10T06:02:52.125Z,19.14
2023-11-10T06:03:52.235Z,19.14
2023-11-10T06:04:52.197Z,18.75
2023-11-10T06:05:52.150Z,19.14
2023-11-10T06:06:52.123Z,19.43
2023-11-10T06:07:52.114Z,20.51
2023-11-10T06:08:52.097Z,20.99
2023-11-10T06:09:52.194Z,20.99
2023-11-10T06:10:52.104Z,21.00
2023-11-10T06:11:55.681Z,19.83
2023-11-10T06:12:52.164Z,19.25
2023-11-10T06:13:52.132Z,19.06
2023-11-10T06:14:52.112Z,19.25
2023-11-10T06:15:52.183Z,19.73
2023-11-10T06:16:52.159Z,19.54
2023-11-10T06:17:52.152Z,18.86
2023-11-10T06:18:52.218Z,18.76
2023-11-10T06:19:52.122Z,18.66
2023-11-10T06:20:52.140Z,18.57
2023-11-10T06:21:52.387Z,18.86
2023-11-10T06:22:52.152Z,18.86
2023-11-10T06:23:52.130Z,18.86
2023-11-10T06:24:52.183Z,18.86
2023-11-10T06:25:52.191Z,18.96
2023-11-10T06:26:52.155Z,18.76
2023-11-10T06:27:52.228Z,18.86
2023-11-10T06:28:52.159Z,18.57
2023-11-10T06:29:52.176Z,18.57
2023-11-10T06:30:52.210Z,18.27
2023-11-10T06:31:52.224Z,18.18
2023-11-10T06:32:52.192Z,18.27
2023-11-10T06:33:52.175Z,18.18
2023-11-10T06:34:52.165Z,18.27
2023-11-10T06:35:52.198Z,18.18
2023-11-10T06:36:52.187Z,18.66
2023-11-10T06:37:52.209Z,18.86
2023-11-10T06:38:52.172Z,18.76
2023-11-10T06:39:52.209Z,18.76
2023-11-10T06:40:52.168Z,18.77
2023-11-10T06:41:52.212Z,18.27
2023-11-10T06:42:52.216Z,18.86
2023-11-10T06:43:52.196Z,18.66
2023-11-10T06:44:52.187Z,18.48
2023-11-10T06:45:52.232Z,18.87
2023-11-10T06:46:52.211Z,18.37
2023-11-10T06:47:52.230Z,18.19
2023-11-10T06:48:52.212Z,18.27
2023-11-10T06:49:52.202Z,18.18
2023-11-10T06:50:52.190Z,18.27
2023-11-10T06:51:52.232Z,18.57
2023-11-10T06:52:52.188Z,19.06
2023-11-10T06:53:52.263Z,18.48
2023-11-10T06:54:55.352Z,18.27
2023-11-10T06:55:52.205Z,18.08
2023-11-10T06:56:52.195Z,17.98
2023-11-10T06:57:52.344Z,17.98
2023-11-10T06:58:52.206Z,17.98
2023-11-10T06:59:52.213Z,18.08
2023-11-10T07:00:52.250Z,18.19
2023-11-10T07:01:52.220Z,18.27
2023-11-10T07:02:54.065Z,18.09
2023-11-10T07:03:52.275Z,18.19
2023-11-10T07:04:52.226Z,18.09
2023-11-10T07:05:52.230Z,17.99
2023-11-10T07:06:52.264Z,17.99
2023-11-10T07:07:52.234Z,18.09
2023-11-10T07:08:52.231Z,17.98
2023-11-10T07:09:52.285Z,17.99
2023-11-10T07:10:52.239Z,18.18
2023-11-10T07:11:52.242Z,18.08
2023-11-10T07:12:52.294Z,18.09
2023-11-10T07:13:52.296Z,17.98
2023-11-10T07:14:52.245Z,18.19
2023-11-10T07:15:52.409Z,17.98
2023-11-10T07:16:52.313Z,18.08
2023-11-10T07:17:52.278Z,18.08
2023-11-10T07:18:52.320Z,18.08
2023-11-10T07:19:53.658Z,18.08
2023-11-10T07:20:52.261Z,18.08
2023-11-10T07:21:52.304Z,18.08
2023-11-10T07:22:52.265Z,18.08
2023-11-10T07:23:52.273Z,18.08
2023-11-10T07:24:52.351Z,18.08
2023-11-10T07:25:52.440Z,17.98
2023-11-10T07:26:52.273Z,18.27
2023-11-10T07:27:52.349Z,18.08
2023-11-10T07:28:52.283Z,18.18
2023-11-10T07:29:52.339Z,18.08
2023-11-10T07:30:52.320Z,18.18
2023-11-10T07:31:52.331Z,18.18
2023-11-10T07:32:52.320Z,17.98
2023-11-10T07:33:52.316Z,18.19
2023-11-10T07:34:52.296Z,17.99
2023-11-10T07:35:52.304Z,18.09
2023-11-10T07:36:52.355Z,18.19
2023-11-10T07:37:52.314Z,18.19
2023-11-10T07:38:52.306Z,18.09
2023-11-10T07:39:52.401Z,18.09
2023-11-10T07:40:52.307Z,19.55
2023-11-10T07:41:52.318Z,20.14
2023-11-10T07:42:52.364Z,21.01
2023-11-10T07:43:52.321Z,18.96
2023-11-10T07:44:52.317Z,18.48
2023-11-10T07:45:52.415Z,18.29
2023-11-10T07:46:52.626Z,18.77
2023-11-10T07:47:52.398Z,18.29
2023-11-10T07:48:52.389Z,18.09
2023-11-10T07:49:52.337Z,18.09
2023-11-10T07:50:52.339Z,17.90
2023-11-10T07:51:52.442Z,18.09
2023-11-10T07:52:52.347Z,17.80
2023-11-10T07:53:52.347Z,17.90
2023-11-10T07:54:58.112Z,18.10
2023-11-10T07:55:52.356Z,18.10
2023-11-10T07:56:52.353Z,17.70
2023-11-10T07:57:52.388Z,18.49
2023-11-10T07:58:52.356Z,18.19
2023-11-10T07:59:52.362Z,17.90
2023-11-10T08:00:52.382Z,17.71
2023-11-10T08:01:52.393Z,17.70
2023-11-10T08:02:52.414Z,17.99
2023-11-10T08:03:52.562Z,17.80
2023-11-10T08:04:52.438Z,17.70
2023-11-10T08:05:52.516Z,17.80
2023-11-10T08:06:52.437Z,17.80
2023-11-10T08:07:52.388Z,18.10
2023-11-10T08:08:52.380Z,17.90
2023-11-10T08:09:52.454Z,18.00
2023-11-10T08:10:52.382Z,18.19
2023-11-10T08:11:55.243Z,18.98
2023-11-10T08:12:52.421Z,18.98
2023-11-10T08:13:52.405Z,19.16
2023-11-10T08:14:52.424Z,19.07
2023-11-10T08:15:52.490Z,19.26
2023-11-10T08:16:52.456Z,19.06
2023-11-10T08:17:52.494Z,19.06
2023-11-10T08:18:52.428Z,19.16
2023-11-10T08:19:52.421Z,19.16
2023-11-10T08:20:52.416Z,19.26
2023-11-10T08:21:52.435Z,19.16
2023-11-10T08:22:52.417Z,19.16
2023-11-10T08:23:52.422Z,19.16
2023-11-10T08:24:52.481Z,19.35
2023-11-10T08:25:52.444Z,18.96
2023-11-10T08:26:52.421Z,19.45
2023-11-10T08:27:52.460Z,19.55
2023-11-10T08:28:52.547Z,19.74
2023-11-10T08:29:52.437Z,19.74
2023-11-10T08:30:52.485Z,19.74
2023-11-10T08:31:52.451Z,19.55
2023-11-10T08:32:52.455Z,19.55
2023-11-10T08:33:52.511Z,19.06
2023-11-10T08:34:52.442Z,19.16
2023-11-10T08:35:52.505Z,19.16
2023-11-10T08:36:52.467Z,18.96
2023-11-10T08:37:52.462Z,18.96
2023-11-10T08:38:52.463Z,18.96
2023-11-10T08:39:52.596Z,19.25
2023-11-10T08:40:52.457Z,19.35
2023-11-10T08:41:52.465Z,19.44
2023-11-10T08:42:52.499Z,19.45
2023-11-10T08:43:52.476Z,19.64
2023-11-10T08:44:52.466Z,19.44
2023-11-10T08:45:52.600Z,19.84
2023-11-10T08:46:52.502Z,19.73
2023-11-10T08:47:52.509Z,20.03
2023-11-10T08:48:52.528Z,19.93
2023-11-10T08:49:52.539Z,19.54
2023-11-10T08:50:52.482Z,19.44
2023-11-10T08:51:52.508Z,19.25
2023-11-10T08:52:52.490Z,19.06
2023-11-10T08:53:52.497Z,19.15
2023-11-10T08:54:52.553Z,19.15
2023-11-10T08:55:52.507Z,19.25
2023-11-10T08:56:52.522Z,19.15
2023-11-10T08:57:52.564Z,18.96
2023-11-10T08:58:52.507Z,18.96
2023-11-10T08:59:52.511Z,19.06
2023-11-10T09:00:52.518Z,18.96
2023-11-10T09:01:52.536Z,18.96
2023-11-10T09:02:52.560Z,18.86
2023-11-10T09:03:52.575Z,18.96
2023-11-10T09:04:52.614Z,18.96
2023-11-10T09:05:52.589Z,18.86
2023-11-10T09:06:52.652Z,18.76
2023-11-10T09:07:52.536Z,18.96
2023-11-10T09:08:52.525Z,18.76
2023-11-10T09:09:52.585Z,18.76
2023-11-10T09:10:52.533Z,18.86
2023-11-10T09:11:52.542Z,18.85
2023-11-10T09:12:52.554Z,18.95
2023-11-10T09:13:52.892Z,18.75
2023-11-10T09:14:52.541Z,18.75
2023-11-10T09:15:59.540Z,18.86
2023-11-10T09:16:52.628Z,18.75
2023-11-10T09:17:52.605Z,18.86
2023-11-10T09:18:52.591Z,18.86
2023-11-10T09:19:52.559Z,18.96
2023-11-10T09:20:52.559Z,18.95
2023-11-10T09:21:52.636Z,18.95
2023-11-10T09:22:52.576Z,19.06
2023-11-10T09:23:52.564Z,19.04
2023-11-10T09:24:52.602Z,19.04
2023-11-10T09:25:52.574Z,19.04
2023-11-10T09:26:52.566Z,18.95
2023-11-10T09:27:52.595Z,18.96
2023-11-10T09:28:52.592Z,18.95
2023-11-10T09:29:52.580Z,18.95
2023-11-10T09:30:52.601Z,19.04
2023-11-10T09:31:52.605Z,19.14
2023-11-10T09:32:52.607Z,19.24
2023-11-10T09:33:52.737Z,19.15
2023-11-10T09:34:52.580Z,19.14
2023-11-10T09:35:52.596Z,19.24
2023-11-10T09:36:52.654Z,19.15
2023-11-10T09:37:52.623Z,18.95
2023-11-10T09:38:52.592Z,18.86
2023-11-10T09:39:52.636Z,19.34
2023-11-10T09:40:52.597Z,19.34
2023-11-10T09:41:52.608Z,18.85
2023-11-10T09:42:52.636Z,18.85
2023-11-10T09:43:52.613Z,19.24
2023-11-10T09:44:52.605Z,19.15
2023-11-10T09:45:52.837Z,19.35
2023-11-10T09:46:52.688Z,19.04
2023-11-10T09:47:52.645Z,19.34
2023-11-10T09:48:52.786Z,19.24
2023-11-10T09:49:52.640Z,19.24
2023-11-10T09:50:52.622Z,19.25
2023-11-10T09:51:52.651Z,19.14
2023-11-10T09:52:52.621Z,19.24
2023-11-10T09:53:52.653Z,19.24
2023-11-10T09:54:52.656Z,19.14
2023-11-10T09:55:52.635Z,19.24
2023-11-10T09:56:52.632Z,19.14
2023-11-10T09:57:52.701Z,19.24
2023-11-10T09:58:52.635Z,19.24
2023-11-10T09:59:52.652Z,19.04
2023-11-10T10:00:52.660Z,19.14
2023-11-10T10:01:52.689Z,19.24
2023-11-10T10:02:52.734Z,19.14
2023-11-10T10:03:52.821Z,19.14
2023-11-10T10:04:52.679Z,19.14
2023-11-10T10:05:52.661Z,19.14
2023-11-10T10:06:52.681Z,19.14
2023-11-10T10:07:52.671Z,19.14
2023-11-10T10:08:52.656Z,19.04
2023-11-10T10:09:52.711Z,19.24
2023-11-10T10:10:52.662Z,19.24
2023-11-10T10:11:52.672Z,19.04
2023-11-10T10:12:52.719Z,19.24
2023-11-10T10:13:52.675Z,19.04
2023-11-10T10:14:52.671Z,18.95
2023-11-10T10:15:52.737Z,19.14
2023-11-10T10:16:52.714Z,19.34
2023-11-10T10:17:52.759Z,19.43
2023-11-10T10:18:52.714Z,19.14
2023-11-10T10:19:52.691Z,19.04
2023-11-10T10:20:52.682Z,18.95
2023-11-10T10:21:52.745Z,18.95
2023-11-10T10:22:52.686Z,19.04
2023-11-10T10:23:52.698Z,19.14
2023-11-10T10:24:52.726Z,18.95
2023-11-10T10:25:52.728Z,19.63
2023-11-10T10:26:52.696Z,19.63
2023-11-10T10:27:52.879Z,19.53
2023-11-10T10:28:52.708Z,19.53
2023-11-10T10:29:52.709Z,19.43
2023-11-10T10:30:52.840Z,19.53
2023-11-10T10:31:52.768Z,19.53
2023-11-10T10:32:52.724Z,19.43
2023-11-10T10:33:52.807Z,19.63
2023-11-10T10:34:52.722Z,19.63
2023-11-10T10:35:52.717Z,19.53
2023-11-10T10:36:52.768Z,19.73
2023-11-10T10:37:52.738Z,19.73
2023-11-10T10:38:52.728Z,19.82
2023-11-10T10:39:52.769Z,19.73
2023-11-10T10:40:52.732Z,19.63
2023-11-10T10:41:52.755Z,19.73
2023-11-10T10:42:52.778Z,19.82
2023-11-10T10:43:58.599Z,19.73
2023-11-10T10:44:52.742Z,19.73
2023-11-10T10:45:52.791Z,19.73
2023-11-10T10:46:52.806Z,19.73
2023-11-10T10:47:52.785Z,19.73
2023-11-10T10:48:52.758Z,19.63
2023-11-10T10:49:52.746Z,19.73
2023-11-10T10:50:52.752Z,19.73
2023-11-10T10:51:52.784Z,19.73
2023-11-10T10:52:52.756Z,19.73
2023-11-10T10:53:52.756Z,19.73
2023-11-10T10:54:52.871Z,19.73
2023-11-10T10:55:52.760Z,19.92
2023-11-10T10:56:52.769Z,19.82
2023-11-10T10:57:52.816Z,20.01
2023-11-10T10:58:52.775Z,20.01
2023-11-10T10:59:52.776Z,20.01
2023-11-10T11:00:52.815Z,19.92
2023-11-10T11:01:52.830Z,20.01
2023-11-10T11:02:52.832Z,19.92
2023-11-10T11:03:52.806Z,19.92
2023-11-10T11:04:52.786Z,19.92
2023-11-10T11:05:52.789Z,19.92
2023-11-10T11:06:52.849Z,19.92
2023-11-10T11:07:52.777Z,19.92
2023-11-10T11:08:52.809Z,19.92
2023-11-10T11:09:52.834Z,19.82
2023-11-10T11:10:52.801Z,19.92
2023-11-10T11:11:52.808Z,19.82
2023-11-10T11:12:52.847Z,19.82
2023-11-10T11:13:52.878Z,19.82
2023-11-10T11:14:52.808Z,19.82
2023-11-10T11:15:52.876Z,19.82
2023-11-10T11:16:52.893Z,20.01
2023-11-10T11:17:52.838Z,19.82
2023-11-10T11:18:52.859Z,19.82
2023-11-10T11:19:52.828Z,19.81
2023-11-10T11:20:52.815Z,19.81
2023-11-10T11:21:52.825Z,19.81
2023-11-10T11:22:52.829Z,20.01
2023-11-10T11:23:52.814Z,20.01
2023-11-10T11:24:52.867Z,20.01
2023-11-10T11:25:52.820Z,20.01
2023-11-10T11:26:52.828Z,20.01
2023-11-10T11:27:52.850Z,20.01
2023-11-10T11:28:52.841Z,19.91
2023-11-10T11:29:52.860Z,20.11
2023-11-10T11:30:52.962Z,19.92
2023-11-10T11:31:52.904Z,20.01
2023-11-10T11:32:52.879Z,20.01
2023-11-10T11:33:52.842Z,20.01
2023-11-10T11:34:52.845Z,19.91
2023-11-10T11:35:52.861Z,20.01
2023-11-10T11:36:52.884Z,20.01
2023-11-10T11:37:52.842Z,19.91
2023-11-10T11:38:52.872Z,20.01
2023-11-10T11:39:52.903Z,19.91
2023-11-10T11:40:52.865Z,20.01
2023-11-10T11:41:52.848Z,20.01
2023-11-10T11:42:52.892Z,20.01
2023-11-10T11:43:52.850Z,20.01
2023-11-10T11:44:52.858Z,20.01
2023-11-10T11:45:52.958Z,20.01
2023-11-10T11:46:52.893Z,20.10
2023-11-10T11:47:52.865Z,20.01
2023-11-10T11:48:52.892Z,20.01
2023-11-10T11:49:52.868Z,20.01
2023-11-10T11:50:52.878Z,20.01
2023-11-10T11:51:52.920Z,20.01
2023-11-10T11:52:52.875Z,19.91
2023-11-10T11:53:52.867Z,20.01
2023-11-10T11:54:52.898Z,19.91
2023-11-10T11:55:52.896Z,19.91
2023-11-10T11:56:52.881Z,19.91
2023-11-10T11:57:52.957Z,20.01
2023-11-10T11:58:52.885Z,20.01
2023-11-10T11:59:52.882Z,20.01
2023-11-10T12:00:52.939Z,19.91
2023-11-10T12:01:52.941Z,19.91
2023-11-10T12:02:52.963Z,20.01
2023-11-10T12:03:53.007Z,19.91
2023-11-10T12:04:52.897Z,20.01
2023-11-10T12:05:52.891Z,19.91
2023-11-10T12:06:52.935Z,19.91
2023-11-10T12:07:52.902Z,19.91
2023-11-10T12:08:52.914Z,19.91
2023-11-10T12:09:52.959Z,19.91
2023-11-10T12:10:52.909Z,20.01
2023-11-10T12:11:52.903Z,20.01
2023-11-10T12:12:52.948Z,19.91
2023-11-10T12:13:52.906Z,20.01
2023-11-10T12:14:52.929Z,19.91
2023-11-10T12:15:52.996Z,20.01
2023-11-10T12:16:52.984Z,20.01
2023-11-10T12:17:52.974Z,19.91
2023-11-10T12:18:52.945Z,19.91
2023-11-10T12:19:52.919Z,20.01
2023-11-10T12:20:52.929Z,20.01
2023-11-10T12:21:53.015Z,19.91
2023-11-10T12:22:52.932Z,20.01
2023-11-10T12:23:52.925Z,19.91
2023-11-10T12:24:52.987Z,19.81
2023-11-10T12:25:52.931Z,19.81
2023-11-10T12:26:52.942Z,19.81
2023-11-10T12:27:53.000Z,19.91
2023-11-10T12:28:52.943Z,19.81
2023-11-10T12:29:52.959Z,19.81
2023-11-10T12:30:53.001Z,19.91
2023-11-10T12:31:52.950Z,19.91
2023-11-10T12:32:53.012Z,19.91
2023-11-10T12:33:52.997Z,19.91
2023-11-10T12:34:52.990Z,20.30
2023-11-10T12:35:52.956Z,19.71
2023-11-10T12:36:52.991Z,19.81
2023-11-10T12:37:52.974Z,19.91
2023-11-10T12:38:52.979Z,20.30
2023-11-10T12:39:53.005Z,19.71
2023-11-10T12:40:52.974Z,19.81
2023-11-10T12:41:53.006Z,20.39
2023-11-10T12:42:53.043Z,19.81
2023-11-10T12:43:52.977Z,19.81
2023-11-10T12:44:53.057Z,20.20
2023-11-10T12:45:53.024Z,19.81
2023-11-10T12:46:53.134Z,19.91
2023-11-10T12:48:00.277Z,20.30
2023-11-10T12:48:53.006Z,19.81
2023-11-10T12:49:53.016Z,20.39
2023-11-10T12:50:52.997Z,20.30
2023-11-10T12:51:53.048Z,20.30
2023-11-10T12:52:53.003Z,20.30
2023-11-10T12:53:53.006Z,20.20